sensor_id;sensor_type;location;lat;lon;timestamp;temperature;humidity
6333;DHT22;3199;49.102;8.856;2024-02-21T00:01:36;7.30;99.90
6333;DHT22;3199;49.102;8.856;2024-02-21T00:04:01;7.30;99.90
6333;DHT22;3199;49.102;8.856;2024-02-21T00:06:27;7.30;99.90
6333;DHT22;3199;49.102;8.856;2024-02-21T00:08:52;7.30;99.90
6333;DHT22;3199;49.102;8.856;2024-02-21T00:11:18;7.30;99.90
6333;DHT22;3199;49.102;8.856;2024-02-21T00:13:43;7.30;99.90
6333;DHT22;3199;49.102;8.856;2024-02-21T00:16:09;7.30;99.90
6333;DHT22;3199;49.102;8.856;2024-02-21T00:18:36;7.30;99.90
6333;DHT22;3199;49.102;8.856;2024-02-21T00:21:01;7.30;99.90
6333;DHT22;3199;49.102;8.856;2024-02-21T00:23:27;7.30;99.90
6333;DHT22;3199;49.102;8.856;2024-02-21T00:25:53;7.30;99.90
6333;DHT22;3199;49.102;8.856;2024-02-21T00:28:19;7.30;99.90
6333;DHT22;3199;49.102;8.856;2024-02-21T00:30:45;7.30;99.90
6333;DHT22;3199;49.102;8.856;2024-02-21T00:33:13;7.30;99.90
6333;DHT22;3199;49.102;8.856;2024-02-21T00:35:39;7.30;99.90
6333;DHT22;3199;49.102;8.856;2024-02-21T00:38:04;7.20;99.90
6333;DHT22;3199;49.102;8.856;2024-02-21T00:40:30;7.20;99.90
6333;DHT22;3199;49.102;8.856;2024-02-21T00:42:55;7.20;99.90
6333;DHT22;3199;49.102;8.856;2024-02-21T00:45:21;7.20;99.90
6333;DHT22;3199;49.102;8.856;2024-02-21T00:47:46;7.20;99.90
6333;DHT22;3199;49.102;8.856;2024-02-21T00:50:12;7.20;99.90
6333;DHT22;3199;49.102;8.856;2024-02-21T00:52:37;7.20;99.90
6333;DHT22;3199;49.102;8.856;2024-02-21T00:55:04;7.20;99.90
6333;DHT22;3199;49.102;8.856;2024-02-21T00:57:29;7.20;99.90
6333;DHT22;3199;49.102;8.856;2024-02-21T00:59:55;7.20;99.90
6333;DHT22;3199;49.102;8.856;2024-02-21T01:02:20;7.30;99.90
6333;DHT22;3199;49.102;8.856;2024-02-21T01:04:46;7.30;99.90
6333;DHT22;3199;49.102;8.856;2024-02-21T01:07:12;7.30;99.90
6333;DHT22;3199;49.102;8.856;2024-02-21T01:09:37;7.30;99.90
6333;DHT22;3199;49.102;8.856;2024-02-21T01:12:03;7.30;99.90
6333;DHT22;3199;49.102;8.856;2024-02-21T01:14:28;7.30;99.90
6333;DHT22;3199;49.102;8.856;2024-02-21T01:16:54;7.30;99.90
6333;DHT22;3199;49.102;8.856;2024-02-21T01:19:19;7.30;99.90
6333;DHT22;3199;49.102;8.856;2024-02-21T01:21:45;7.30;99.90
6333;DHT22;3199;49.102;8.856;2024-02-21T01:24:11;7.30;99.90
6333;DHT22;3199;49.102;8.856;2024-02-21T01:26:36;7.30;99.90
6333;DHT22;3199;49.102;8.856;2024-02-21T01:29:02;7.40;99.90
6333;DHT22;3199;49.102;8.856;2024-02-21T01:31:27;7.40;99.90
6333;DHT22;3199;49.102;8.856;2024-02-21T01:33:52;7.40;99.90
6333;DHT22;3199;49.102;8.856;2024-02-21T01:36:18;7.40;99.90
6333;DHT22;3199;49.102;8.856;2024-02-21T01:38:43;7.50;99.90
6333;DHT22;3199;49.102;8.856;2024-02-21T01:41:09;7.50;99.90
6333;DHT22;3199;49.102;8.856;2024-02-21T01:43:34;7.50;99.90
6333;DHT22;3199;49.102;8.856;2024-02-21T01:46:00;7.50;99.90
6333;DHT22;3199;49.102;8.856;2024-02-21T01:48:26;7.50;99.90
6333;DHT22;3199;49.102;8.856;2024-02-21T01:50:54;7.50;99.90
6333;DHT22;3199;49.102;8.856;2024-02-21T01:53:30;7.50;99.90
6333;DHT22;3199;49.102;8.856;2024-02-21T01:55:56;7.40;99.90
6333;DHT22;3199;49.102;8.856;2024-02-21T01:58:22;7.40;99.90
6333;DHT22;3199;49.102;8.856;2024-02-21T02:00:49;7.40;99.90
6333;DHT22;3199;49.102;8.856;2024-02-21T02:03:15;7.40;99.90
6333;DHT22;3199;49.102;8.856;2024-02-21T02:05:49;7.40;99.90
6333;DHT22;3199;49.102;8.856;2024-02-21T02:08:19;7.40;99.90
6333;DHT22;3199;49.102;8.856;2024-02-21T02:10:45;7.40;99.90
6333;DHT22;3199;49.102;8.856;2024-02-21T02:13:11;7.40;99.90
6333;DHT22;3199;49.102;8.856;2024-02-21T02:15:48;7.40;99.90
6333;DHT22;3199;49.102;8.856;2024-02-21T02:18:14;7.50;99.90
6333;DHT22;3199;49.102;8.856;2024-02-21T02:20:40;7.50;99.90
6333;DHT22;3199;49.102;8.856;2024-02-21T02:23:25;7.50;99.90
6333;DHT22;3199;49.102;8.856;2024-02-21T02:25:51;7.50;99.90
6333;DHT22;3199;49.102;8.856;2024-02-21T02:28:17;7.50;99.90
6333;DHT22;3199;49.102;8.856;2024-02-21T02:30:43;7.50;99.90
6333;DHT22;3199;49.102;8.856;2024-02-21T02:33:09;7.50;99.90
6333;DHT22;3199;49.102;8.856;2024-02-21T02:35:35;7.50;99.90
6333;DHT22;3199;49.102;8.856;2024-02-21T02:38:02;7.50;99.90
6333;DHT22;3199;49.102;8.856;2024-02-21T02:40:27;7.50;99.90
6333;DHT22;3199;49.102;8.856;2024-02-21T02:42:53;7.60;99.90
6333;DHT22;3199;49.102;8.856;2024-02-21T02:45:21;7.50;99.90
6333;DHT22;3199;49.102;8.856;2024-02-21T02:47:48;7.60;99.90
6333;DHT22;3199;49.102;8.856;2024-02-21T02:50:14;7.60;99.90
6333;DHT22;3199;49.102;8.856;2024-02-21T02:52:39;7.50;99.90
6333;DHT22;3199;49.102;8.856;2024-02-21T02:55:05;7.50;99.90
6333;DHT22;3199;49.102;8.856;2024-02-21T02:57:31;7.50;99.90
6333;DHT22;3199;49.102;8.856;2024-02-21T02:59:57;7.40;99.90
6333;DHT22;3199;49.102;8.856;2024-02-21T03:02:23;7.40;99.90
6333;DHT22;3199;49.102;8.856;2024-02-21T03:04:48;7.50;99.90
6333;DHT22;3199;49.102;8.856;2024-02-21T03:07:15;7.50;99.90
6333;DHT22;3199;49.102;8.856;2024-02-21T03:09:41;7.40;99.90
6333;DHT22;3199;49.102;8.856;2024-02-21T03:12:08;7.40;99.90
6333;DHT22;3199;49.102;8.856;2024-02-21T03:14:34;7.40;99.90
6333;DHT22;3199;49.102;8.856;2024-02-21T03:17:00;7.40;99.90
6333;DHT22;3199;49.102;8.856;2024-02-21T03:19:26;7.40;99.90
6333;DHT22;3199;49.102;8.856;2024-02-21T03:21:52;7.40;99.90
6333;DHT22;3199;49.102;8.856;2024-02-21T03:24:21;7.40;99.90
6333;DHT22;3199;49.102;8.856;2024-02-21T03:26:47;7.40;99.90
6333;DHT22;3199;49.102;8.856;2024-02-21T03:29:15;7.30;99.90
6333;DHT22;3199;49.102;8.856;2024-02-21T03:31:41;7.30;99.90
6333;DHT22;3199;49.102;8.856;2024-02-21T03:34:07;7.30;99.90
6333;DHT22;3199;49.102;8.856;2024-02-21T03:36:32;7.30;99.90
6333;DHT22;3199;49.102;8.856;2024-02-21T03:38:58;7.30;99.90
6333;DHT22;3199;49.102;8.856;2024-02-21T03:41:24;7.30;99.90
6333;DHT22;3199;49.102;8.856;2024-02-21T03:43:49;7.30;99.90
6333;DHT22;3199;49.102;8.856;2024-02-21T03:46:15;7.30;99.90
6333;DHT22;3199;49.102;8.856;2024-02-21T03:48:41;7.30;99.90
6333;DHT22;3199;49.102;8.856;2024-02-21T03:51:06;7.30;99.90
6333;DHT22;3199;49.102;8.856;2024-02-21T03:53:32;7.20;99.90
6333;DHT22;3199;49.102;8.856;2024-02-21T03:56:01;7.20;99.90
6333;DHT22;3199;49.102;8.856;2024-02-21T03:58:32;7.20;99.90
6333;DHT22;3199;49.102;8.856;2024-02-21T04:01:00;7.20;99.90
6333;DHT22;3199;49.102;8.856;2024-02-21T04:03:26;7.10;99.90
6333;DHT22;3199;49.102;8.856;2024-02-21T04:05:52;7.10;99.90
6333;DHT22;3199;49.102;8.856;2024-02-21T04:08:17;7.10;99.90
6333;DHT22;3199;49.102;8.856;2024-02-21T04:10:43;7.10;99.90
6333;DHT22;3199;49.102;8.856;2024-02-21T04:13:09;7.10;99.90
6333;DHT22;3199;49.102;8.856;2024-02-21T04:15:35;7.00;99.90
6333;DHT22;3199;49.102;8.856;2024-02-21T04:18:01;7.00;99.90
6333;DHT22;3199;49.102;8.856;2024-02-21T04:20:26;7.00;99.90
6333;DHT22;3199;49.102;8.856;2024-02-21T04:22:52;7.00;99.90
6333;DHT22;3199;49.102;8.856;2024-02-21T04:25:17;6.90;99.90
6333;DHT22;3199;49.102;8.856;2024-02-21T04:27:43;6.90;99.90
6333;DHT22;3199;49.102;8.856;2024-02-21T04:30:09;6.90;99.90
6333;DHT22;3199;49.102;8.856;2024-02-21T04:32:35;6.80;99.90
6333;DHT22;3199;49.102;8.856;2024-02-21T04:35:00;6.80;99.90
6333;DHT22;3199;49.102;8.856;2024-02-21T04:37:26;6.80;99.90
6333;DHT22;3199;49.102;8.856;2024-02-21T04:39:52;6.70;99.90
6333;DHT22;3199;49.102;8.856;2024-02-21T04:42:17;6.70;99.90
6333;DHT22;3199;49.102;8.856;2024-02-21T04:44:43;6.70;99.90
6333;DHT22;3199;49.102;8.856;2024-02-21T04:47:08;6.70;99.90
6333;DHT22;3199;49.102;8.856;2024-02-21T04:49:34;6.70;99.90
6333;DHT22;3199;49.102;8.856;2024-02-21T04:52:00;6.60;99.90
6333;DHT22;3199;49.102;8.856;2024-02-21T04:54:26;6.60;99.90
6333;DHT22;3199;49.102;8.856;2024-02-21T04:56:51;6.60;99.90
6333;DHT22;3199;49.102;8.856;2024-02-21T04:59:17;6.60;99.90
6333;DHT22;3199;49.102;8.856;2024-02-21T05:01:43;6.60;99.90
6333;DHT22;3199;49.102;8.856;2024-02-21T05:04:08;6.60;99.90
6333;DHT22;3199;49.102;8.856;2024-02-21T05:06:38;6.50;99.90
6333;DHT22;3199;49.102;8.856;2024-02-21T05:09:04;6.50;99.90
6333;DHT22;3199;49.102;8.856;2024-02-21T05:11:30;6.50;99.90
6333;DHT22;3199;49.102;8.856;2024-02-21T05:13:56;6.40;99.90
6333;DHT22;3199;49.102;8.856;2024-02-21T05:16:21;6.40;99.90
6333;DHT22;3199;49.102;8.856;2024-02-21T05:18:47;6.40;99.90
6333;DHT22;3199;49.102;8.856;2024-02-21T05:21:13;6.30;99.90
6333;DHT22;3199;49.102;8.856;2024-02-21T05:23:38;6.30;99.90
6333;DHT22;3199;49.102;8.856;2024-02-21T05:26:05;6.20;99.90
6333;DHT22;3199;49.102;8.856;2024-02-21T05:28:31;6.20;99.90
6333;DHT22;3199;49.102;8.856;2024-02-21T05:30:56;6.10;99.90
6333;DHT22;3199;49.102;8.856;2024-02-21T05:33:22;6.20;99.90
6333;DHT22;3199;49.102;8.856;2024-02-21T05:35:47;6.10;99.90
6333;DHT22;3199;49.102;8.856;2024-02-21T05:38:16;6.10;99.90
6333;DHT22;3199;49.102;8.856;2024-02-21T05:40:41;6.10;99.90
6333;DHT22;3199;49.102;8.856;2024-02-21T05:43:07;6.10;99.90
6333;DHT22;3199;49.102;8.856;2024-02-21T05:45:33;6.10;99.90
6333;DHT22;3199;49.102;8.856;2024-02-21T05:47:59;6.00;99.90
6333;DHT22;3199;49.102;8.856;2024-02-21T05:50:25;6.00;99.90
6333;DHT22;3199;49.102;8.856;2024-02-21T05:52:52;6.00;99.90
6333;DHT22;3199;49.102;8.856;2024-02-21T05:55:18;6.00;99.90
6333;DHT22;3199;49.102;8.856;2024-02-21T05:57:43;6.00;99.90
6333;DHT22;3199;49.102;8.856;2024-02-21T06:00:09;6.00;99.90
6333;DHT22;3199;49.102;8.856;2024-02-21T06:02:35;5.90;99.90
6333;DHT22;3199;49.102;8.856;2024-02-21T06:05:00;5.90;99.90
6333;DHT22;3199;49.102;8.856;2024-02-21T06:07:26;5.90;99.90
6333;DHT22;3199;49.102;8.856;2024-02-21T06:09:51;5.90;99.90
6333;DHT22;3199;49.102;8.856;2024-02-21T06:12:17;5.90;99.90
6333;DHT22;3199;49.102;8.856;2024-02-21T06:14:42;5.90;99.90
6333;DHT22;3199;49.102;8.856;2024-02-21T06:17:08;5.80;99.90
6333;DHT22;3199;49.102;8.856;2024-02-21T06:19:33;5.70;99.90
6333;DHT22;3199;49.102;8.856;2024-02-21T06:21:59;5.70;99.90
6333;DHT22;3199;49.102;8.856;2024-02-21T06:24:24;5.70;99.90
6333;DHT22;3199;49.102;8.856;2024-02-21T06:26:50;5.60;99.90
6333;DHT22;3199;49.102;8.856;2024-02-21T06:29:15;5.50;99.90
6333;DHT22;3199;49.102;8.856;2024-02-21T06:31:41;5.50;99.90
6333;DHT22;3199;49.102;8.856;2024-02-21T06:34:06;5.40;99.90
6333;DHT22;3199;49.102;8.856;2024-02-21T06:36:32;5.30;99.90
6333;DHT22;3199;49.102;8.856;2024-02-21T06:38:58;5.30;99.90
6333;DHT22;3199;49.102;8.856;2024-02-21T06:41:24;5.30;99.90
6333;DHT22;3199;49.102;8.856;2024-02-21T06:43:51;5.30;99.90
6333;DHT22;3199;49.102;8.856;2024-02-21T06:46:42;5.30;99.90
6333;DHT22;3199;49.102;8.856;2024-02-21T06:49:08;5.40;99.90
6333;DHT22;3199;49.102;8.856;2024-02-21T06:51:33;5.40;99.90
6333;DHT22;3199;49.102;8.856;2024-02-21T06:54:00;5.50;99.90
6333;DHT22;3199;49.102;8.856;2024-02-21T06:56:25;5.50;99.90
6333;DHT22;3199;49.102;8.856;2024-02-21T06:58:57;5.50;99.90
6333;DHT22;3199;49.102;8.856;2024-02-21T07:01:25;5.60;99.90
6333;DHT22;3199;49.102;8.856;2024-02-21T07:03:51;5.70;99.90
6333;DHT22;3199;49.102;8.856;2024-02-21T07:06:16;5.70;99.90
6333;DHT22;3199;49.102;8.856;2024-02-21T07:08:42;5.80;99.90
6333;DHT22;3199;49.102;8.856;2024-02-21T07:11:07;5.90;99.90
6333;DHT22;3199;49.102;8.856;2024-02-21T07:13:33;5.90;99.90
6333;DHT22;3199;49.102;8.856;2024-02-21T07:15:58;5.90;99.90
6333;DHT22;3199;49.102;8.856;2024-02-21T07:18:24;6.00;99.90
6333;DHT22;3199;49.102;8.856;2024-02-21T07:20:51;6.10;99.90
6333;DHT22;3199;49.102;8.856;2024-02-21T07:23:17;6.30;99.90
6333;DHT22;3199;49.102;8.856;2024-02-21T07:25:43;6.50;99.90
6333;DHT22;3199;49.102;8.856;2024-02-21T07:28:09;6.70;99.90
6333;DHT22;3199;49.102;8.856;2024-02-21T07:30:34;6.90;99.90
6333;DHT22;3199;49.102;8.856;2024-02-21T07:33:00;7.20;99.90
6333;DHT22;3199;49.102;8.856;2024-02-21T07:35:25;7.70;99.90
6333;DHT22;3199;49.102;8.856;2024-02-21T07:37:51;8.10;99.90
6333;DHT22;3199;49.102;8.856;2024-02-21T07:40:16;8.40;99.90
6333;DHT22;3199;49.102;8.856;2024-02-21T07:42:43;8.70;99.90
6333;DHT22;3199;49.102;8.856;2024-02-21T07:45:09;8.90;99.90
6333;DHT22;3199;49.102;8.856;2024-02-21T07:47:35;9.10;99.90
6333;DHT22;3199;49.102;8.856;2024-02-21T07:50:02;9.30;99.90
6333;DHT22;3199;49.102;8.856;2024-02-21T07:52:29;9.50;99.90
6333;DHT22;3199;49.102;8.856;2024-02-21T07:54:54;9.60;99.90
6333;DHT22;3199;49.102;8.856;2024-02-21T07:57:20;9.80;99.90
6333;DHT22;3199;49.102;8.856;2024-02-21T07:59:45;9.90;99.90
6333;DHT22;3199;49.102;8.856;2024-02-21T08:02:16;10.10;99.90
6333;DHT22;3199;49.102;8.856;2024-02-21T08:04:42;10.20;99.90
6333;DHT22;3199;49.102;8.856;2024-02-21T08:07:09;10.30;99.90
6333;DHT22;3199;49.102;8.856;2024-02-21T08:09:35;10.30;99.90
6333;DHT22;3199;49.102;8.856;2024-02-21T08:12:03;10.20;99.90
6333;DHT22;3199;49.102;8.856;2024-02-21T08:14:29;10.10;99.90
6333;DHT22;3199;49.102;8.856;2024-02-21T08:16:55;10.10;99.90
6333;DHT22;3199;49.102;8.856;2024-02-21T08:19:21;10.20;99.90
6333;DHT22;3199;49.102;8.856;2024-02-21T08:21:47;10.20;99.90
6333;DHT22;3199;49.102;8.856;2024-02-21T08:24:16;10.40;99.90
6333;DHT22;3199;49.102;8.856;2024-02-21T08:26:42;10.40;99.90
6333;DHT22;3199;49.102;8.856;2024-02-21T08:29:08;10.40;99.90
6333;DHT22;3199;49.102;8.856;2024-02-21T08:31:33;10.40;99.90
6333;DHT22;3199;49.102;8.856;2024-02-21T08:34:00;10.40;99.90
6333;DHT22;3199;49.102;8.856;2024-02-21T08:36:33;10.40;99.90
6333;DHT22;3199;49.102;8.856;2024-02-21T08:38:59;10.40;99.90
6333;DHT22;3199;49.102;8.856;2024-02-21T08:41:25;10.40;99.90
6333;DHT22;3199;49.102;8.856;2024-02-21T08:43:52;10.40;99.90
6333;DHT22;3199;49.102;8.856;2024-02-21T08:46:17;10.40;99.90
6333;DHT22;3199;49.102;8.856;2024-02-21T08:48:44;10.40;99.90
6333;DHT22;3199;49.102;8.856;2024-02-21T08:51:13;10.40;99.90
6333;DHT22;3199;49.102;8.856;2024-02-21T08:53:39;10.30;99.90
6333;DHT22;3199;49.102;8.856;2024-02-21T08:56:05;10.30;99.90
6333;DHT22;3199;49.102;8.856;2024-02-21T08:58:31;10.20;99.90
6333;DHT22;3199;49.102;8.856;2024-02-21T09:00:56;10.20;99.90
6333;DHT22;3199;49.102;8.856;2024-02-21T09:03:22;10.10;99.90
6333;DHT22;3199;49.102;8.856;2024-02-21T09:05:48;10.20;99.90
6333;DHT22;3199;49.102;8.856;2024-02-21T09:08:13;10.20;99.90
6333;DHT22;3199;49.102;8.856;2024-02-21T09:10:42;10.20;99.90
6333;DHT22;3199;49.102;8.856;2024-02-21T09:13:07;10.30;99.90
6333;DHT22;3199;49.102;8.856;2024-02-21T09:15:34;10.30;99.90
6333;DHT22;3199;49.102;8.856;2024-02-21T09:17:59;10.40;99.90
6333;DHT22;3199;49.102;8.856;2024-02-21T09:20:25;10.50;99.90
6333;DHT22;3199;49.102;8.856;2024-02-21T09:22:51;10.60;99.90
6333;DHT22;3199;49.102;8.856;2024-02-21T09:25:17;10.60;99.90
6333;DHT22;3199;49.102;8.856;2024-02-21T09:27:44;10.70;99.90
6333;DHT22;3199;49.102;8.856;2024-02-21T09:30:10;10.80;99.90
6333;DHT22;3199;49.102;8.856;2024-02-21T09:32:36;10.90;99.90
6333;DHT22;3199;49.102;8.856;2024-02-21T09:35:02;11.00;99.90
6333;DHT22;3199;49.102;8.856;2024-02-21T09:37:27;11.10;99.90
6333;DHT22;3199;49.102;8.856;2024-02-21T09:39:53;11.20;99.90
6333;DHT22;3199;49.102;8.856;2024-02-21T09:42:20;11.30;99.90
6333;DHT22;3199;49.102;8.856;2024-02-21T09:44:47;11.40;99.90
6333;DHT22;3199;49.102;8.856;2024-02-21T09:47:18;11.50;99.90
6333;DHT22;3199;49.102;8.856;2024-02-21T09:49:44;11.50;99.90
6333;DHT22;3199;49.102;8.856;2024-02-21T09:52:12;11.40;99.90
6333;DHT22;3199;49.102;8.856;2024-02-21T09:54:39;11.40;99.90
6333;DHT22;3199;49.102;8.856;2024-02-21T09:57:07;11.50;99.90
6333;DHT22;3199;49.102;8.856;2024-02-21T09:59:33;11.40;99.90
6333;DHT22;3199;49.102;8.856;2024-02-21T10:01:59;11.40;99.90
6333;DHT22;3199;49.102;8.856;2024-02-21T10:04:28;11.50;99.90
6333;DHT22;3199;49.102;8.856;2024-02-21T10:06:54;11.50;99.90
6333;DHT22;3199;49.102;8.856;2024-02-21T10:09:27;11.60;99.90
6333;DHT22;3199;49.102;8.856;2024-02-21T10:11:53;11.60;99.90
6333;DHT22;3199;49.102;8.856;2024-02-21T10:14:19;11.50;99.90
6333;DHT22;3199;49.102;8.856;2024-02-21T10:16:55;11.40;99.80
6333;DHT22;3199;49.102;8.856;2024-02-21T10:19:21;11.40;99.90
6333;DHT22;3199;49.102;8.856;2024-02-21T10:22:09;11.40;99.90
6333;DHT22;3199;49.102;8.856;2024-02-21T10:24:35;11.40;99.80
6333;DHT22;3199;49.102;8.856;2024-02-21T10:27:04;11.60;99.90
6333;DHT22;3199;49.102;8.856;2024-02-21T10:29:33;11.70;99.90
6333;DHT22;3199;49.102;8.856;2024-02-21T10:32:12;11.80;99.60
6333;DHT22;3199;49.102;8.856;2024-02-21T10:34:39;11.80;99.50
6333;DHT22;3199;49.102;8.856;2024-02-21T10:37:08;11.90;99.70
6333;DHT22;3199;49.102;8.856;2024-02-21T10:39:36;12.00;99.20
6333;DHT22;3199;49.102;8.856;2024-02-21T10:42:03;12.10;99.30
6333;DHT22;3199;49.102;8.856;2024-02-21T10:44:33;12.20;99.70
6333;DHT22;3199;49.102;8.856;2024-02-21T10:46:59;12.30;99.20
6333;DHT22;3199;49.102;8.856;2024-02-21T10:49:26;12.40;99.50
6333;DHT22;3199;49.102;8.856;2024-02-21T10:52:03;12.50;98.90
6333;DHT22;3199;49.102;8.856;2024-02-21T10:54:43;12.60;98.80
6333;DHT22;3199;49.102;8.856;2024-02-21T10:57:10;12.60;98.70
6333;DHT22;3199;49.102;8.856;2024-02-21T10:59:39;12.60;98.50
6333;DHT22;3199;49.102;8.856;2024-02-21T11:02:05;12.70;98.50
6333;DHT22;3199;49.102;8.856;2024-02-21T11:04:32;12.80;98.40
6333;DHT22;3199;49.102;8.856;2024-02-21T11:07:02;12.90;98.20
6333;DHT22;3199;49.102;8.856;2024-02-21T11:09:32;12.80;98.60
6333;DHT22;3199;49.102;8.856;2024-02-21T11:12:03;12.80;98.00
6333;DHT22;3199;49.102;8.856;2024-02-21T11:14:29;12.70;97.70
6333;DHT22;3199;49.102;8.856;2024-02-21T11:16:58;12.60;97.70
6333;DHT22;3199;49.102;8.856;2024-02-21T11:19:28;12.60;98.20
6333;DHT22;3199;49.102;8.856;2024-02-21T11:21:55;12.60;98.30
6333;DHT22;3199;49.102;8.856;2024-02-21T11:24:30;12.70;98.40
6333;DHT22;3199;49.102;8.856;2024-02-21T11:27:18;12.80;98.50
6333;DHT22;3199;49.102;8.856;2024-02-21T11:29:49;12.80;98.50
6333;DHT22;3199;49.102;8.856;2024-02-21T11:32:17;13.00;98.90
6333;DHT22;3199;49.102;8.856;2024-02-21T11:34:54;13.10;98.70
6333;DHT22;3199;49.102;8.856;2024-02-21T11:37:20;13.00;98.50
6333;DHT22;3199;49.102;8.856;2024-02-21T11:39:46;13.20;98.40
6333;DHT22;3199;49.102;8.856;2024-02-21T11:42:11;13.20;98.50
6333;DHT22;3199;49.102;8.856;2024-02-21T11:44:38;13.20;98.20
6333;DHT22;3199;49.102;8.856;2024-02-21T11:47:05;13.10;98.30
6333;DHT22;3199;49.102;8.856;2024-02-21T11:49:36;13.20;98.20
6333;DHT22;3199;49.102;8.856;2024-02-21T11:52:03;13.30;98.80
6333;DHT22;3199;49.102;8.856;2024-02-21T11:54:33;13.50;98.00
6333;DHT22;3199;49.102;8.856;2024-02-21T11:57:00;13.50;97.90
6333;DHT22;3199;49.102;8.856;2024-02-21T11:59:26;13.40;96.80
6333;DHT22;3199;49.102;8.856;2024-02-21T12:01:53;13.30;97.10
6333;DHT22;3199;49.102;8.856;2024-02-21T12:04:19;13.30;97.30
6333;DHT22;3199;49.102;8.856;2024-02-21T12:06:45;13.40;97.20
6333;DHT22;3199;49.102;8.856;2024-02-21T12:09:14;13.30;96.80
6333;DHT22;3199;49.102;8.856;2024-02-21T12:11:41;13.30;96.90
6333;DHT22;3199;49.102;8.856;2024-02-21T12:14:07;13.30;96.90
6333;DHT22;3199;49.102;8.856;2024-02-21T12:16:34;13.40;97.50
6333;DHT22;3199;49.102;8.856;2024-02-21T12:19:02;13.60;97.60
6333;DHT22;3199;49.102;8.856;2024-02-21T12:21:33;13.70;96.80
6333;DHT22;3199;49.102;8.856;2024-02-21T12:24:00;13.70;96.60
6333;DHT22;3199;49.102;8.856;2024-02-21T12:26:26;13.70;96.60
6333;DHT22;3199;49.102;8.856;2024-02-21T12:28:53;13.70;96.80
6333;DHT22;3199;49.102;8.856;2024-02-21T12:31:18;13.60;96.10
6333;DHT22;3199;49.102;8.856;2024-02-21T12:33:44;13.50;96.00
6333;DHT22;3199;49.102;8.856;2024-02-21T12:36:09;13.50;96.70
6333;DHT22;3199;49.102;8.856;2024-02-21T12:38:35;13.40;95.70
6333;DHT22;3199;49.102;8.856;2024-02-21T12:41:01;13.40;96.00
6333;DHT22;3199;49.102;8.856;2024-02-21T12:43:27;13.40;96.40
6333;DHT22;3199;49.102;8.856;2024-02-21T12:45:53;13.40;96.10
6333;DHT22;3199;49.102;8.856;2024-02-21T12:48:18;13.40;96.10
6333;DHT22;3199;49.102;8.856;2024-02-21T12:50:49;13.50;96.00
6333;DHT22;3199;49.102;8.856;2024-02-21T12:53:19;13.60;96.10
6333;DHT22;3199;49.102;8.856;2024-02-21T12:55:49;13.50;96.00
6333;DHT22;3199;49.102;8.856;2024-02-21T12:58:15;13.60;96.30
6333;DHT22;3199;49.102;8.856;2024-02-21T13:00:41;13.60;96.10
6333;DHT22;3199;49.102;8.856;2024-02-21T13:03:07;13.60;96.20
6333;DHT22;3199;49.102;8.856;2024-02-21T13:05:33;13.70;95.90
6333;DHT22;3199;49.102;8.856;2024-02-21T13:07:59;13.80;95.60
6333;DHT22;3199;49.102;8.856;2024-02-21T13:10:24;13.80;95.40
6333;DHT22;3199;49.102;8.856;2024-02-21T13:12:50;13.70;95.30
6333;DHT22;3199;49.102;8.856;2024-02-21T13:15:16;13.60;95.00
6333;DHT22;3199;49.102;8.856;2024-02-21T13:17:43;13.50;94.70
6333;DHT22;3199;49.102;8.856;2024-02-21T13:20:11;13.40;95.20
6333;DHT22;3199;49.102;8.856;2024-02-21T13:22:37;13.40;95.30
6333;DHT22;3199;49.102;8.856;2024-02-21T13:25:03;13.30;95.00
6333;DHT22;3199;49.102;8.856;2024-02-21T13:27:29;13.20;95.50
6333;DHT22;3199;49.102;8.856;2024-02-21T13:29:54;13.20;95.30
6333;DHT22;3199;49.102;8.856;2024-02-21T13:32:20;13.10;94.70
6333;DHT22;3199;49.102;8.856;2024-02-21T13:34:45;13.10;95.10
6333;DHT22;3199;49.102;8.856;2024-02-21T13:37:11;13.10;95.10
6333;DHT22;3199;49.102;8.856;2024-02-21T13:39:37;13.00;94.80
6333;DHT22;3199;49.102;8.856;2024-02-21T13:42:02;13.00;95.10
6333;DHT22;3199;49.102;8.856;2024-02-21T13:44:33;13.10;95.10
6333;DHT22;3199;49.102;8.856;2024-02-21T13:46:59;13.20;95.20
6333;DHT22;3199;49.102;8.856;2024-02-21T13:49:25;13.20;94.90
6333;DHT22;3199;49.102;8.856;2024-02-21T13:51:50;13.20;95.00
6333;DHT22;3199;49.102;8.856;2024-02-21T13:54:16;13.20;95.00
6333;DHT22;3199;49.102;8.856;2024-02-21T13:56:45;13.20;94.70
6333;DHT22;3199;49.102;8.856;2024-02-21T13:59:12;13.20;95.20
6333;DHT22;3199;49.102;8.856;2024-02-21T14:01:38;13.20;95.10
6333;DHT22;3199;49.102;8.856;2024-02-21T14:04:04;13.30;95.30
6333;DHT22;3199;49.102;8.856;2024-02-21T14:06:29;13.40;95.40
6333;DHT22;3199;49.102;8.856;2024-02-21T14:08:55;13.40;95.10
6333;DHT22;3199;49.102;8.856;2024-02-21T14:11:20;13.40;94.70
6333;DHT22;3199;49.102;8.856;2024-02-21T14:13:46;13.30;94.60
6333;DHT22;3199;49.102;8.856;2024-02-21T14:16:12;13.30;94.70
6333;DHT22;3199;49.102;8.856;2024-02-21T14:18:41;13.30;94.40
6333;DHT22;3199;49.102;8.856;2024-02-21T14:21:13;13.40;94.30
6333;DHT22;3199;49.102;8.856;2024-02-21T14:23:38;13.50;94.40
6333;DHT22;3199;49.102;8.856;2024-02-21T14:26:04;13.50;94.20
6333;DHT22;3199;49.102;8.856;2024-02-21T14:28:30;13.50;94.40
6333;DHT22;3199;49.102;8.856;2024-02-21T14:30:56;13.50;93.80
6333;DHT22;3199;49.102;8.856;2024-02-21T14:33:28;13.50;93.90
6333;DHT22;3199;49.102;8.856;2024-02-21T14:35:54;13.40;93.70
6333;DHT22;3199;49.102;8.856;2024-02-21T14:38:19;13.30;94.20
6333;DHT22;3199;49.102;8.856;2024-02-21T14:40:45;13.30;94.50
6333;DHT22;3199;49.102;8.856;2024-02-21T14:43:11;13.30;94.50
6333;DHT22;3199;49.102;8.856;2024-02-21T14:45:36;13.30;94.80
6333;DHT22;3199;49.102;8.856;2024-02-21T14:48:04;13.30;95.00
6333;DHT22;3199;49.102;8.856;2024-02-21T14:50:29;13.30;94.80
6333;DHT22;3199;49.102;8.856;2024-02-21T14:52:55;13.30;94.80
6333;DHT22;3199;49.102;8.856;2024-02-21T14:55:20;13.30;94.70
6333;DHT22;3199;49.102;8.856;2024-02-21T14:57:46;13.20;94.40
6333;DHT22;3199;49.102;8.856;2024-02-21T15:00:11;13.20;94.70
6333;DHT22;3199;49.102;8.856;2024-02-21T15:02:38;13.20;95.00
6333;DHT22;3199;49.102;8.856;2024-02-21T15:05:04;13.20;94.90
6333;DHT22;3199;49.102;8.856;2024-02-21T15:07:31;13.20;94.40
6333;DHT22;3199;49.102;8.856;2024-02-21T15:09:56;13.20;94.20
6333;DHT22;3199;49.102;8.856;2024-02-21T15:12:22;13.20;94.50
6333;DHT22;3199;49.102;8.856;2024-02-21T15:14:49;13.10;94.70
6333;DHT22;3199;49.102;8.856;2024-02-21T15:17:14;13.10;94.70
6333;DHT22;3199;49.102;8.856;2024-02-21T15:19:40;13.20;94.80
6333;DHT22;3199;49.102;8.856;2024-02-21T15:22:12;13.10;95.00
6333;DHT22;3199;49.102;8.856;2024-02-21T15:24:41;13.10;95.10
6333;DHT22;3199;49.102;8.856;2024-02-21T15:27:07;13.10;95.20
6333;DHT22;3199;49.102;8.856;2024-02-21T15:29:36;13.00;95.20
6333;DHT22;3199;49.102;8.856;2024-02-21T15:32:02;12.90;95.30
6333;DHT22;3199;49.102;8.856;2024-02-21T15:34:28;12.90;95.50
6333;DHT22;3199;49.102;8.856;2024-02-21T15:36:54;12.90;95.50
6333;DHT22;3199;49.102;8.856;2024-02-21T15:39:19;12.90;95.50
6333;DHT22;3199;49.102;8.856;2024-02-21T15:41:45;12.80;95.60
6333;DHT22;3199;49.102;8.856;2024-02-21T15:44:10;12.80;95.80
6333;DHT22;3199;49.102;8.856;2024-02-21T15:46:36;12.80;95.90
6333;DHT22;3199;49.102;8.856;2024-02-21T15:49:02;12.80;96.30
6333;DHT22;3199;49.102;8.856;2024-02-21T15:51:28;12.70;96.10
6333;DHT22;3199;49.102;8.856;2024-02-21T15:53:55;12.70;96.30
6333;DHT22;3199;49.102;8.856;2024-02-21T15:56:21;12.60;96.20
6333;DHT22;3199;49.102;8.856;2024-02-21T15:58:47;12.60;96.40
6333;DHT22;3199;49.102;8.856;2024-02-21T16:01:12;12.60;96.70
6333;DHT22;3199;49.102;8.856;2024-02-21T16:03:38;12.50;97.00
6333;DHT22;3199;49.102;8.856;2024-02-21T16:06:05;12.50;97.20